sensor_id;sensor_type;location;lat;lon;timestamp;P1;durP1;ratioP1;P2;durP2;ratioP2
29958;SDS011;16815;51.100;6.516;2023-04-25T00:00:46;11.80;;;5.10;;
29958;SDS011;16815;51.100;6.516;2023-04-25T00:03:12;14.00;;;6.00;;
29958;SDS011;16815;51.100;6.516;2023-04-25T00:05:38;13.03;;;5.80;;
29958;SDS011;16815;51.100;6.516;2023-04-25T00:08:04;12.73;;;5.70;;
29958;SDS011;16815;51.100;6.516;2023-04-25T00:10:30;13.83;;;5.50;;
29958;SDS011;16815;51.100;6.516;2023-04-25T00:12:57;10.53;;;5.97;;
29958;SDS011;16815;51.100;6.516;2023-04-25T00:15:23;13.07;;;5.73;;
29958;SDS011;16815;51.100;6.516;2023-04-25T00:17:49;11.53;;;5.30;;
29958;SDS011;16815;51.100;6.516;2023-04-25T00:20:17;9.33;;;5.70;;
29958;SDS011;16815;51.100;6.516;2023-04-25T00:22:43;10.47;;;4.83;;
29958;SDS011;16815;51.100;6.516;2023-04-25T00:25:09;17.30;;;5.47;;
29958;SDS011;16815;51.100;6.516;2023-04-25T00:27:35;14.83;;;5.83;;
29958;SDS011;16815;51.100;6.516;2023-04-25T00:30:01;12.53;;;5.73;;
29958;SDS011;16815;51.100;6.516;2023-04-25T00:32:27;15.90;;;5.77;;
29958;SDS011;16815;51.100;6.516;2023-04-25T00:34:54;12.03;;;5.60;;
29958;SDS011;16815;51.100;6.516;2023-04-25T00:37:20;11.87;;;5.43;;
29958;SDS011;16815;51.100;6.516;2023-04-25T00:39:47;16.30;;;5.53;;
29958;SDS011;16815;51.100;6.516;2023-04-25T00:42:13;13.53;;;5.90;;
29958;SDS011;16815;51.100;6.516;2023-04-25T00:44:39;11.33;;;5.47;;
29958;SDS011;16815;51.100;6.516;2023-04-25T00:47:05;12.93;;;6.10;;
29958;SDS011;16815;51.100;6.516;2023-04-25T00:49:32;13.07;;;5.90;;
29958;SDS011;16815;51.100;6.516;2023-04-25T00:51:58;13.33;;;5.43;;
29958;SDS011;16815;51.100;6.516;2023-04-25T00:54:24;13.80;;;6.37;;
29958;SDS011;16815;51.100;6.516;2023-04-25T00:56:50;10.60;;;5.60;;
29958;SDS011;16815;51.100;6.516;2023-04-25T00:59:16;13.53;;;6.00;;
29958;SDS011;16815;51.100;6.516;2023-04-25T01:01:42;11.23;;;5.97;;
29958;SDS011;16815;51.100;6.516;2023-04-25T01:04:09;11.03;;;6.00;;
29958;SDS011;16815;51.100;6.516;2023-04-25T01:06:35;12.57;;;5.67;;
29958;SDS011;16815;51.100;6.516;2023-04-25T01:09:01;13.53;;;6.47;;
29958;SDS011;16815;51.100;6.516;2023-04-25T01:11:27;16.37;;;6.70;;
29958;SDS011;16815;51.100;6.516;2023-04-25T01:13:53;13.33;;;6.07;;
29958;SDS011;16815;51.100;6.516;2023-04-25T01:16:19;20.47;;;6.40;;
29958;SDS011;16815;51.100;6.516;2023-04-25T01:18:45;10.80;;;6.03;;
29958;SDS011;16815;51.100;6.516;2023-04-25T01:21:12;15.60;;;6.13;;
29958;SDS011;16815;51.100;6.516;2023-04-25T01:23:39;11.73;;;6.03;;
29958;SDS011;16815;51.100;6.516;2023-04-25T01:26:09;14.40;;;6.63;;
29958;SDS011;16815;51.100;6.516;2023-04-25T01:28:35;13.40;;;6.23;;
29958;SDS011;16815;51.100;6.516;2023-04-25T01:31:02;13.50;;;5.97;;
29958;SDS011;16815;51.100;6.516;2023-04-25T01:33:28;13.93;;;6.00;;
29958;SDS011;16815;51.100;6.516;2023-04-25T01:35:54;11.40;;;5.60;;
29958;SDS011;16815;51.100;6.516;2023-04-25T01:38:20;12.70;;;5.27;;
29958;SDS011;16815;51.100;6.516;2023-04-25T01:40:46;12.27;;;5.53;;
29958;SDS011;16815;51.100;6.516;2023-04-25T01:43:14;10.27;;;5.73;;
29958;SDS011;16815;51.100;6.516;2023-04-25T01:45:41;10.93;;;5.63;;
29958;SDS011;16815;51.100;6.516;2023-04-25T01:48:07;13.10;;;5.90;;
29958;SDS011;16815;51.100;6.516;2023-04-25T01:50:33;17.30;;;6.07;;
29958;SDS011;16815;51.100;6.516;2023-04-25T01:52:59;10.63;;;5.77;;
29958;SDS011;16815;51.100;6.516;2023-04-25T01:55:27;15.90;;;5.83;;
29958;SDS011;16815;51.100;6.516;2023-04-25T01:57:53;11.60;;;5.60;;
29958;SDS011;16815;51.100;6.516;2023-04-25T02:00:19;13.43;;;5.87;;
29958;SDS011;16815;51.100;6.516;2023-04-25T02:02:45;13.47;;;5.70;;
29958;SDS011;16815;51.100;6.516;2023-04-25T02:05:11;14.97;;;6.83;;
29958;SDS011;16815;51.100;6.516;2023-04-25T02:07:37;14.03;;;5.10;;
29958;SDS011;16815;51.100;6.516;2023-04-25T02:10:03;10.53;;;5.50;;
29958;SDS011;16815;51.100;6.516;2023-04-25T02:12:30;11.97;;;5.40;;
29958;SDS011;16815;51.100;6.516;2023-04-25T02:14:56;11.33;;;5.43;;
29958;SDS011;16815;51.100;6.516;2023-04-25T02:17:22;12.50;;;5.40;;
29958;SDS011;16815;51.100;6.516;2023-04-25T02:19:48;13.57;;;5.60;;
29958;SDS011;16815;51.100;6.516;2023-04-25T02:22:15;12.57;;;5.60;;
29958;SDS011;16815;51.100;6.516;2023-04-25T02:24:41;11.93;;;5.20;;
29958;SDS011;16815;51.100;6.516;2023-04-25T02:27:07;11.17;;;5.30;;
29958;SDS011;16815;51.100;6.516;2023-04-25T02:29:33;11.97;;;4.90;;
29958;SDS011;16815;51.100;6.516;2023-04-25T02:31:59;14.47;;;5.90;;
29958;SDS011;16815;51.100;6.516;2023-04-25T02:34:25;12.53;;;5.80;;
29958;SDS011;16815;51.100;6.516;2023-04-25T02:36:51;8.23;;;5.37;;
29958;SDS011;16815;51.100;6.516;2023-04-25T02:39:17;10.47;;;5.27;;
29958;SDS011;16815;51.100;6.516;2023-04-25T02:41:43;17.00;;;5.63;;
29958;SDS011;16815;51.100;6.516;2023-04-25T02:44:09;12.20;;;5.60;;
29958;SDS011;16815;51.100;6.516;2023-04-25T02:46:35;7.73;;;4.80;;
29958;SDS011;16815;51.100;6.516;2023-04-25T02:49:01;13.00;;;5.93;;
29958;SDS011;16815;51.100;6.516;2023-04-25T02:51:27;13.27;;;5.87;;
29958;SDS011;16815;51.100;6.516;2023-04-25T02:53:53;11.00;;;5.27;;
29958;SDS011;16815;51.100;6.516;2023-04-25T02:56:18;15.43;;;6.00;;
29958;SDS011;16815;51.100;6.516;2023-04-25T02:58:44;14.80;;;5.97;;
29958;SDS011;16815;51.100;6.516;2023-04-25T03:01:10;12.77;;;6.20;;
29958;SDS011;16815;51.100;6.516;2023-04-25T03:03:36;13.70;;;5.67;;
29958;SDS011;16815;51.100;6.516;2023-04-25T03:06:02;13.80;;;6.30;;
29958;SDS011;16815;51.100;6.516;2023-04-25T03:08:28;12.63;;;6.23;;
29958;SDS011;16815;51.100;6.516;2023-04-25T03:10:57;11.27;;;4.93;;
29958;SDS011;16815;51.100;6.516;2023-04-25T03:13:23;9.57;;;5.23;;
29958;SDS011;16815;51.100;6.516;2023-04-25T03:15:49;12.07;;;6.33;;
29958;SDS011;16815;51.100;6.516;2023-04-25T03:18:15;11.67;;;5.90;;
29958;SDS011;16815;51.100;6.516;2023-04-25T03:20:41;14.73;;;6.00;;
29958;SDS011;16815;51.100;6.516;2023-04-25T03:23:07;10.50;;;5.77;;
29958;SDS011;16815;51.100;6.516;2023-04-25T03:25:33;14.50;;;6.00;;
29958;SDS011;16815;51.100;6.516;2023-04-25T03:27:59;10.03;;;5.17;;
29958;SDS011;16815;51.100;6.516;2023-04-25T03:30:25;15.37;;;6.13;;
29958;SDS011;16815;51.100;6.516;2023-04-25T03:32:51;14.10;;;6.10;;
29958;SDS011;16815;51.100;6.516;2023-04-25T03:35:17;8.50;;;5.23;;
29958;SDS011;16815;51.100;6.516;2023-04-25T03:37:43;15.67;;;6.30;;
29958;SDS011;16815;51.100;6.516;2023-04-25T03:40:12;10.60;;;5.97;;
29958;SDS011;16815;51.100;6.516;2023-04-25T03:42:38;12.97;;;6.27;;
29958;SDS011;16815;51.100;6.516;2023-04-25T03:45:04;11.60;;;6.17;;
29958;SDS011;16815;51.100;6.516;2023-04-25T03:47:31;11.27;;;6.03;;
29958;SDS011;16815;51.100;6.516;2023-04-25T03:49:57;11.07;;;5.33;;
29958;SDS011;16815;51.100;6.516;2023-04-25T03:52:23;15.27;;;6.20;;
29958;SDS011;16815;51.100;6.516;2023-04-25T03:54:48;13.43;;;6.23;;
29958;SDS011;16815;51.100;6.516;2023-04-25T03:57:14;13.80;;;6.13;;
29958;SDS011;16815;51.100;6.516;2023-04-25T03:59:40;11.60;;;6.23;;
29958;SDS011;16815;51.100;6.516;2023-04-25T04:02:06;10.93;;;5.67;;
29958;SDS011;16815;51.100;6.516;2023-04-25T04:04:32;16.13;;;6.37;;
29958;SDS011;16815;51.100;6.516;2023-04-25T04:06:58;12.77;;;6.00;;
29958;SDS011;16815;51.100;6.516;2023-04-25T04:09:24;13.83;;;6.20;;
29958;SDS011;16815;51.100;6.516;2023-04-25T04:11:51;11.17;;;6.00;;
29958;SDS011;16815;51.100;6.516;2023-04-25T04:14:16;14.10;;;5.83;;
29958;SDS011;16815;51.100;6.516;2023-04-25T04:16:42;11.33;;;5.80;;
29958;SDS011;16815;51.100;6.516;2023-04-25T04:19:08;15.57;;;6.60;;
29958;SDS011;16815;51.100;6.516;2023-04-25T04:21:34;14.17;;;5.80;;
29958;SDS011;16815;51.100;6.516;2023-04-25T04:24:00;12.77;;;6.10;;
29958;SDS011;16815;51.100;6.516;2023-04-25T04:26:26;13.67;;;5.63;;
29958;SDS011;16815;51.100;6.516;2023-04-25T04:28:52;15.03;;;5.90;;
29958;SDS011;16815;51.100;6.516;2023-04-25T04:31:22;17.90;;;6.30;;
29958;SDS011;16815;51.100;6.516;2023-04-25T04:33:48;10.67;;;5.90;;
29958;SDS011;16815;51.100;6.516;2023-04-25T04:36:15;12.17;;;5.73;;
29958;SDS011;16815;51.100;6.516;2023-04-25T04:38:44;14.80;;;5.87;;
29958;SDS011;16815;51.100;6.516;2023-04-25T04:41:10;16.53;;;5.93;;
29958;SDS011;16815;51.100;6.516;2023-04-25T04:43:36;15.33;;;5.93;;
29958;SDS011;16815;51.100;6.516;2023-04-25T04:46:04;16.83;;;6.63;;
29958;SDS011;16815;51.100;6.516;2023-04-25T04:48:31;12.03;;;5.73;;
29958;SDS011;16815;51.100;6.516;2023-04-25T04:51:00;11.73;;;5.90;;
29958;SDS011;16815;51.100;6.516;2023-04-25T04:53:26;13.07;;;5.73;;
29958;SDS011;16815;51.100;6.516;2023-04-25T04:55:52;16.57;;;6.73;;
29958;SDS011;16815;51.100;6.516;2023-04-25T04:58:18;9.27;;;5.03;;
29958;SDS011;16815;51.100;6.516;2023-04-25T05:00:44;13.33;;;5.73;;
29958;SDS011;16815;51.100;6.516;2023-04-25T05:03:11;19.40;;;6.30;;
29958;SDS011;16815;51.100;6.516;2023-04-25T05:05:37;11.93;;;5.70;;
29958;SDS011;16815;51.100;6.516;2023-04-25T05:08:05;21.00;;;6.20;;
29958;SDS011;16815;51.100;6.516;2023-04-25T05:10:31;12.67;;;5.93;;
29958;SDS011;16815;51.100;6.516;2023-04-25T05:12:57;15.27;;;6.30;;
29958;SDS011;16815;51.100;6.516;2023-04-25T05:15:22;15.93;;;5.93;;
29958;SDS011;16815;51.100;6.516;2023-04-25T05:17:48;10.60;;;5.23;;
29958;SDS011;16815;51.100;6.516;2023-04-25T05:20:14;20.20;;;5.50;;
29958;SDS011;16815;51.100;6.516;2023-04-25T05:22:40;15.40;;;5.87;;
29958;SDS011;16815;51.100;6.516;2023-04-25T05:25:07;17.07;;;5.70;;
29958;SDS011;16815;51.100;6.516;2023-04-25T05:27:33;14.60;;;5.57;;
29958;SDS011;16815;51.100;6.516;2023-04-25T05:29:59;16.60;;;5.43;;
29958;SDS011;16815;51.100;6.516;2023-04-25T05:32:25;15.40;;;4.83;;
29958;SDS011;16815;51.100;6.516;2023-04-25T05:34:51;14.00;;;5.03;;
29958;SDS011;16815;51.100;6.516;2023-04-25T05:37:17;18.63;;;5.77;;
29958;SDS011;16815;51.100;6.516;2023-04-25T05:39:43;12.83;;;5.13;;
29958;SDS011;16815;51.100;6.516;2023-04-25T05:42:09;13.00;;;5.23;;
29958;SDS011;16815;51.100;6.516;2023-04-25T05:44:35;12.70;;;5.77;;
29958;SDS011;16815;51.100;6.516;2023-04-25T05:47:01;13.80;;;5.40;;
29958;SDS011;16815;51.100;6.516;2023-04-25T05:49:29;14.63;;;5.13;;
29958;SDS011;16815;51.100;6.516;2023-04-25T05:51:55;15.03;;;5.40;;
29958;SDS011;16815;51.100;6.516;2023-04-25T05:54:21;13.40;;;4.80;;
29958;SDS011;16815;51.100;6.516;2023-04-25T05:56:47;12.10;;;5.37;;
29958;SDS011;16815;51.100;6.516;2023-04-25T05:59:12;14.80;;;5.70;;
29958;SDS011;16815;51.100;6.516;2023-04-25T06:01:38;11.00;;;5.47;;
29958;SDS011;16815;51.100;6.516;2023-04-25T06:04:05;12.07;;;5.97;;
29958;SDS011;16815;51.100;6.516;2023-04-25T06:06:31;15.80;;;5.50;;
29958;SDS011;16815;51.100;6.516;2023-04-25T06:08:57;14.10;;;5.67;;
29958;SDS011;16815;51.100;6.516;2023-04-25T06:11:23;13.80;;;5.33;;
29958;SDS011;16815;51.100;6.516;2023-04-25T06:13:49;11.00;;;4.90;;
29958;SDS011;16815;51.100;6.516;2023-04-25T06:16:14;13.53;;;5.20;;
29958;SDS011;16815;51.100;6.516;2023-04-25T06:18:40;12.87;;;4.70;;
29958;SDS011;16815;51.100;6.516;2023-04-25T06:21:09;12.17;;;4.97;;
29958;SDS011;16815;51.100;6.516;2023-04-25T06:23:35;12.87;;;4.80;;
29958;SDS011;16815;51.100;6.516;2023-04-25T06:26:01;15.63;;;5.40;;
29958;SDS011;16815;51.100;6.516;2023-04-25T06:28:27;14.97;;;5.00;;
29958;SDS011;16815;51.100;6.516;2023-04-25T06:30:53;12.87;;;4.77;;
29958;SDS011;16815;51.100;6.516;2023-04-25T06:33:19;11.30;;;4.90;;
29958;SDS011;16815;51.100;6.516;2023-04-25T06:35:46;17.33;;;5.27;;
29958;SDS011;16815;51.100;6.516;2023-04-25T06:38:12;11.23;;;4.93;;
29958;SDS011;16815;51.100;6.516;2023-04-25T06:40:38;10.07;;;4.47;;
29958;SDS011;16815;51.100;6.516;2023-04-25T06:43:04;10.53;;;4.17;;
29958;SDS011;16815;51.100;6.516;2023-04-25T06:45:30;15.83;;;4.90;;
29958;SDS011;16815;51.100;6.516;2023-04-25T06:47:56;14.93;;;4.30;;
29958;SDS011;16815;51.100;6.516;2023-04-25T06:50:22;11.90;;;4.47;;
29958;SDS011;16815;51.100;6.516;2023-04-25T06:52:48;10.90;;;5.17;;
29958;SDS011;16815;51.100;6.516;2023-04-25T06:55:14;13.93;;;4.13;;
29958;SDS011;16815;51.100;6.516;2023-04-25T06:57:40;12.77;;;4.70;;
29958;SDS011;16815;51.100;6.516;2023-04-25T07:00:06;12.33;;;4.53;;
29958;SDS011;16815;51.100;6.516;2023-04-25T07:02:35;17.03;;;4.60;;
29958;SDS011;16815;51.100;6.516;2023-04-25T07:05:02;13.27;;;4.90;;
29958;SDS011;16815;51.100;6.516;2023-04-25T07:07:29;12.13;;;4.60;;
29958;SDS011;16815;51.100;6.516;2023-04-25T07:09:55;13.90;;;4.50;;
29958;SDS011;16815;51.100;6.516;2023-04-25T07:12:21;14.60;;;4.87;;
29958;SDS011;16815;51.100;6.516;2023-04-25T07:14:47;13.27;;;4.47;;
29958;SDS011;16815;51.100;6.516;2023-04-25T07:17:13;12.47;;;4.43;;
29958;SDS011;16815;51.100;6.516;2023-04-25T07:19:40;14.93;;;4.40;;
29958;SDS011;16815;51.100;6.516;2023-04-25T07:22:06;14.73;;;5.07;;
29958;SDS011;16815;51.100;6.516;2023-04-25T07:24:32;13.90;;;4.37;;
29958;SDS011;16815;51.100;6.516;2023-04-25T07:26:58;11.20;;;4.23;;
29958;SDS011;16815;51.100;6.516;2023-04-25T07:29:24;8.47;;;3.63;;
29958;SDS011;16815;51.100;6.516;2023-04-25T07:31:50;14.63;;;4.27;;
29958;SDS011;16815;51.100;6.516;2023-04-25T07:34:16;13.37;;;4.37;;
29958;SDS011;16815;51.100;6.516;2023-04-25T07:36:43;13.17;;;4.50;;
29958;SDS011;16815;51.100;6.516;2023-04-25T07:39:09;10.00;;;3.87;;
29958;SDS011;16815;51.100;6.516;2023-04-25T07:41:35;11.57;;;3.20;;
29958;SDS011;16815;51.100;6.516;2023-04-25T07:44:00;10.63;;;3.47;;
29958;SDS011;16815;51.100;6.516;2023-04-25T07:46:27;11.93;;;3.80;;
29958;SDS011;16815;51.100;6.516;2023-04-25T07:48:53;10.30;;;3.80;;
29958;SDS011;16815;51.100;6.516;2023-04-25T07:51:19;9.10;;;3.30;;
29958;SDS011;16815;51.100;6.516;2023-04-25T07:53:47;12.73;;;3.97;;
29958;SDS011;16815;51.100;6.516;2023-04-25T07:56:12;9.63;;;3.53;;
29958;SDS011;16815;51.100;6.516;2023-04-25T07:58:38;8.70;;;3.53;;
29958;SDS011;16815;51.100;6.516;2023-04-25T08:01:04;8.33;;;3.40;;
29958;SDS011;16815;51.100;6.516;2023-04-25T08:03:30;10.57;;;3.90;;
29958;SDS011;16815;51.100;6.516;2023-04-25T08:05:56;10.43;;;3.13;;
29958;SDS011;16815;51.100;6.516;2023-04-25T08:08:22;11.23;;;3.23;;
29958;SDS011;16815;51.100;6.516;2023-04-25T08:10:48;9.97;;;3.17;;
29958;SDS011;16815;51.100;6.516;2023-04-25T08:13:14;12.87;;;3.67;;
29958;SDS011;16815;51.100;6.516;2023-04-25T08:15:40;9.73;;;3.70;;
29958;SDS011;16815;51.100;6.516;2023-04-25T08:18:06;12.33;;;3.70;;
29958;SDS011;16815;51.100;6.516;2023-04-25T08:20:32;8.63;;;3.33;;
29958;SDS011;16815;51.100;6.516;2023-04-25T08:22:58;12.00;;;2.93;;
29958;SDS011;16815;51.100;6.516;2023-04-25T08:25:24;7.47;;;3.07;;
29958;SDS011;16815;51.100;6.516;2023-04-25T08:27:50;12.90;;;3.43;;
29958;SDS011;16815;51.100;6.516;2023-04-25T08:30:16;9.47;;;3.07;;
29958;SDS011;16815;51.100;6.516;2023-04-25T08:32:42;8.10;;;2.60;;
29958;SDS011;16815;51.100;6.516;2023-04-25T08:35:08;8.30;;;2.93;;
29958;SDS011;16815;51.100;6.516;2023-04-25T08:37:34;6.50;;;2.40;;
29958;SDS011;16815;51.100;6.516;2023-04-25T08:40:01;9.93;;;3.37;;
29958;SDS011;16815;51.100;6.516;2023-04-25T08:42:31;10.07;;;2.60;;
29958;SDS011;16815;51.100;6.516;2023-04-25T08:45:00;8.53;;;2.80;;
29958;SDS011;16815;51.100;6.516;2023-04-25T08:47:26;14.83;;;2.67;;
29958;SDS011;16815;51.100;6.516;2023-04-25T08:49:53;8.33;;;2.43;;
29958;SDS011;16815;51.100;6.516;2023-04-25T08:52:21;6.23;;;2.33;;
29958;SDS011;16815;51.100;6.516;2023-04-25T08:54:48;6.83;;;2.60;;
29958;SDS011;16815;51.100;6.516;2023-04-25T08:57:14;8.00;;;2.77;;
29958;SDS011;16815;51.100;6.516;2023-04-25T08:59:40;8.07;;;3.10;;
29958;SDS011;16815;51.100;6.516;2023-04-25T09:02:10;9.10;;;2.53;;
29958;SDS011;16815;51.100;6.516;2023-04-25T09:04:39;6.77;;;3.03;;
29958;SDS011;16815;51.100;6.516;2023-04-25T09:07:05;7.80;;;2.43;;
29958;SDS011;16815;51.100;6.516;2023-04-25T09:09:31;7.53;;;2.67;;
29958;SDS011;16815;51.100;6.516;2023-04-25T09:11:57;5.57;;;2.27;;
29958;SDS011;16815;51.100;6.516;2023-04-25T09:14:24;8.47;;;2.80;;
29958;SDS011;16815;51.100;6.516;2023-04-25T09:19:24;8.03;;;2.60;;
29958;SDS011;16815;51.100;6.516;2023-04-25T09:21:53;5.87;;;2.20;;
29958;SDS011;16815;51.100;6.516;2023-04-25T09:24:42;6.17;;;2.77;;
29958;SDS011;16815;51.100;6.516;2023-04-25T09:27:07;6.37;;;2.50;;
29958;SDS011;16815;51.100;6.516;2023-04-25T09:29:34;6.73;;;3.03;;
29958;SDS011;16815;51.100;6.516;2023-04-25T09:34:40;8.57;;;2.63;;
29958;SDS011;16815;51.100;6.516;2023-04-25T09:37:07;7.80;;;2.87;;
29958;SDS011;16815;51.100;6.516;2023-04-25T09:39:33;8.07;;;2.63;;
29958;SDS011;16815;51.100;6.516;2023-04-25T09:41:59;5.03;;;2.60;;
29958;SDS011;16815;51.100;6.516;2023-04-25T09:44:25;4.47;;;1.90;;
29958;SDS011;16815;51.100;6.516;2023-04-25T09:46:52;4.47;;;2.00;;
29958;SDS011;16815;51.100;6.516;2023-04-25T09:49:19;7.40;;;2.67;;
29958;SDS011;16815;51.100;6.516;2023-04-25T09:51:58;6.27;;;2.53;;
29958;SDS011;16815;51.100;6.516;2023-04-25T09:54:37;5.23;;;2.37;;
29958;SDS011;16815;51.100;6.516;2023-04-25T09:57:13;7.57;;;2.60;;
29958;SDS011;16815;51.100;6.516;2023-04-25T09:59:44;7.93;;;2.57;;
29958;SDS011;16815;51.100;6.516;2023-04-25T10:02:10;5.47;;;2.07;;
29958;SDS011;16815;51.100;6.516;2023-04-25T10:04:36;6.10;;;2.30;;
29958;SDS011;16815;51.100;6.516;2023-04-25T10:07:03;9.00;;;2.83;;
29958;SDS011;16815;51.100;6.516;2023-04-25T10:09:31;5.73;;;2.20;;
29958;SDS011;16815;51.100;6.516;2023-04-25T10:12:00;9.93;;;2.40;;
29958;SDS011;16815;51.100;6.516;2023-04-25T10:14:28;5.23;;;1.80;;
29958;SDS011;16815;51.100;6.516;2023-04-25T10:16:55;6.83;;;2.00;;
29958;SDS011;16815;51.100;6.516;2023-04-25T10:19:21;7.23;;;2.50;;
29958;SDS011;16815;51.100;6.516;2023-04-25T10:21:58;8.07;;;2.80;;
29958;SDS011;16815;51.100;6.516;2023-04-25T10:24:27;5.83;;;2.40;;
29958;SDS011;16815;51.100;6.516;2023-04-25T10:26:53;6.13;;;2.57;;
29958;SDS011;16815;51.100;6.516;2023-04-25T10:29:24;6.73;;;2.20;;
29958;SDS011;16815;51.100;6.516;2023-04-25T10:31:50;6.90;;;2.10;;
29958;SDS011;16815;51.100;6.516;2023-04-25T10:34:16;7.73;;;2.30;;
29958;SDS011;16815;51.100;6.516;2023-04-25T10:36:42;6.00;;;2.50;;
29958;SDS011;16815;51.100;6.516;2023-04-25T10:39:08;10.27;;;2.30;;
29958;SDS011;16815;51.100;6.516;2023-04-25T10:41:52;5.23;;;2.20;;
29958;SDS011;16815;51.100;6.516;2023-04-25T10:44:18;6.63;;;2.53;;
29958;SDS011;16815;51.100;6.516;2023-04-25T10:46:44;4.70;;;2.23;;
29958;SDS011;16815;51.100;6.516;2023-04-25T10:49:10;6.03;;;2.40;;
29958;SDS011;16815;51.100;6.516;2023-04-25T10:51:58;4.43;;;2.17;;
29958;SDS011;16815;51.100;6.516;2023-04-25T10:54:39;5.20;;;1.87;;
29958;SDS011;16815;51.100;6.516;2023-04-25T10:57:05;9.87;;;2.27;;
29958;SDS011;16815;51.100;6.516;2023-04-25T10:59:31;3.27;;;1.80;;
29958;SDS011;16815;51.100;6.516;2023-04-25T11:01:57;6.10;;;2.03;;
29958;SDS011;16815;51.100;6.516;2023-04-25T11:04:30;4.67;;;1.90;;
29958;SDS011;16815;51.100;6.516;2023-04-25T11:09:28;5.00;;;1.97;;
29958;SDS011;16815;51.100;6.516;2023-04-25T11:11:55;6.27;;;1.90;;
29958;SDS011;16815;51.100;6.516;2023-04-25T11:14:21;4.90;;;1.73;;
29958;SDS011;16815;51.100;6.516;2023-04-25T11:16:52;6.33;;;2.70;;
29958;SDS011;16815;51.100;6.516;2023-04-25T11:19:19;6.00;;;2.10;;
29958;SDS011;16815;51.100;6.516;2023-04-25T11:21:45;4.73;;;2.00;;
29958;SDS011;16815;51.100;6.516;2023-04-25T11:24:11;6.73;;;1.77;;
29958;SDS011;16815;51.100;6.516;2023-04-25T11:26:37;7.37;;;2.00;;
29958;SDS011;16815;51.100;6.516;2023-04-25T11:29:03;4.03;;;1.90;;
29958;SDS011;16815;51.100;6.516;2023-04-25T11:31:29;4.90;;;2.10;;
29958;SDS011;16815;51.100;6.516;2023-04-25T11:33:58;3.80;;;2.20;;
29958;SDS011;16815;51.100;6.516;2023-04-25T11:36:25;2.97;;;1.90;;
29958;SDS011;16815;51.100;6.516;2023-04-25T11:38:52;4.67;;;1.83;;
29958;SDS011;16815;51.100;6.516;2023-04-25T11:41:18;5.53;;;2.50;;
29958;SDS011;16815;51.100;6.516;2023-04-25T11:43:44;6.50;;;2.43;;
29958;SDS011;16815;51.100;6.516;2023-04-25T11:46:10;5.07;;;2.53;;
29958;SDS011;16815;51.100;6.516;2023-04-25T11:48:39;3.43;;;1.80;;
29958;SDS011;16815;51.100;6.516;2023-04-25T11:51:05;6.27;;;2.07;;
29958;SDS011;16815;51.100;6.516;2023-04-25T11:53:31;7.60;;;2.20;;
29958;SDS011;16815;51.100;6.516;2023-04-25T11:55:57;6.73;;;1.97;;
29958;SDS011;16815;51.100;6.516;2023-04-25T11:58:23;4.97;;;2.20;;
29958;SDS011;16815;51.100;6.516;2023-04-25T12:00:49;6.13;;;2.03;;
29958;SDS011;16815;51.100;6.516;2023-04-25T12:03:15;4.60;;;1.93;;
29958;SDS011;16815;51.100;6.516;2023-04-25T12:05:42;4.97;;;2.27;;
29958;SDS011;16815;51.100;6.516;2023-04-25T12:08:10;7.10;;;2.10;;
29958;SDS011;16815;51.100;6.516;2023-04-25T12:10:40;2.90;;;1.97;;
29958;SDS011;16815;51.100;6.516;2023-04-25T12:13:25;7.57;;;2.47;;
29958;SDS011;16815;51.100;6.516;2023-04-25T12:15:52;6.67;;;2.07;;
29958;SDS011;16815;51.100;6.516;2023-04-25T12:18:20;5.00;;;2.10;;
29958;SDS011;16815;51.100;6.516;2023-04-25T12:20:48;5.33;;;1.97;;
29958;SDS011;16815;51.100;6.516;2023-04-25T12:23:14;3.07;;;1.57;;
29958;SDS011;16815;51.100;6.516;2023-04-25T12:25:41;3.00;;;1.80;;
29958;SDS011;16815;51.100;6.516;2023-04-25T12:28:14;2.83;;;1.50;;
29958;SDS011;16815;51.100;6.516;2023-04-25T12:30:53;2.77;;;1.70;;
29958;SDS011;16815;51.100;6.516;2023-04-25T12:33:19;2.87;;;1.43;;
29958;SDS011;16815;51.100;6.516;2023-04-25T12:35:45;5.60;;;1.70;;
29958;SDS011;16815;51.100;6.516;2023-04-25T12:38:11;3.33;;;1.37;;
29958;SDS011;16815;51.100;6.516;2023-04-25T12:40:45;1.87;;;1.40;;
29958;SDS011;16815;51.100;6.516;2023-04-25T12:43:11;3.27;;;1.47;;
29958;SDS011;16815;51.100;6.516;2023-04-25T12:45:37;2.60;;;1.60;;
29958;SDS011;16815;51.100;6.516;2023-04-25T12:48:03;3.43;;;1.20;;
29958;SDS011;16815;51.100;6.516;2023-04-25T12:50:29;2.00;;;1.57;;
29958;SDS011;16815;51.100;6.516;2023-04-25T12:52:55;3.80;;;1.60;;
29958;SDS011;16815;51.100;6.516;2023-04-25T12:55:21;1.83;;;1.40;;
29958;SDS011;16815;51.100;6.516;2023-04-25T12:57:47;3.23;;;1.50;;
29958;SDS011;16815;51.100;6.516;2023-04-25T13:00:13;2.30;;;1.37;;
29958;SDS011;16815;51.100;6.516;2023-04-25T13:02:42;2.40;;;1.60;;
29958;SDS011;16815;51.100;6.516;2023-04-25T13:05:08;1.47;;;1.37;;
29958;SDS011;16815;51.100;6.516;2023-04-25T13:07:34;2.60;;;1.60;;
29958;SDS011;16815;51.100;6.516;2023-04-25T13:10:00;2.77;;;1.60;;
29958;SDS011;16815;51.100;6.516;2023-04-25T13:12:27;2.23;;;1.60;;
29958;SDS011;16815;51.100;6.516;2023-04-25T13:14:54;2.37;;;1.60;;
29958;SDS011;16815;51.100;6.516;2023-04-25T13:17:19;4.27;;;2.07;;
29958;SDS011;16815;51.100;6.516;2023-04-25T13:19:45;3.37;;;1.63;;
29958;SDS011;16815;51.100;6.516;2023-04-25T13:22:11;3.20;;;1.50;;
29958;SDS011;16815;51.100;6.516;2023-04-25T13:24:40;2.93;;;1.30;;
29958;SDS011;16815;51.100;6.516;2023-04-25T13:27:06;3.50;;;1.70;;
29958;SDS011;16815;51.100;6.516;2023-04-25T13:29:31;2.00;;;1.37;;
29958;SDS011;16815;51.100;6.516;2023-04-25T13:32:00;4.10;;;1.70;;
29958;SDS011;16815;51.100;6.516;2023-04-25T13:34:26;2.67;;;1.70;;
29958;SDS011;16815;51.100;6.516;2023-04-25T13:36:52;4.57;;;2.53;;
29958;SDS011;16815;51.100;6.516;2023-04-25T13:39:18;4.53;;;2.10;;
29958;SDS011;16815;51.100;6.516;2023-04-25T13:41:44;4.17;;;1.70;;
29958;SDS011;16815;51.100;6.516;2023-04-25T13:44:10;4.03;;;1.83;;
29958;SDS011;16815;51.100;6.516;2023-04-25T13:46:36;3.80;;;1.90;;
29958;SDS011;16815;51.100;6.516;2023-04-25T13:49:03;2.23;;;1.50;;
29958;SDS011;16815;51.100;6.516;2023-04-25T13:51:29;3.13;;;1.53;;
29958;SDS011;16815;51.100;6.516;2023-04-25T13:53:55;4.97;;;2.30;;
29958;SDS011;16815;51.100;6.516;2023-04-25T13:56:21;2.90;;;1.70;;
29958;SDS011;16815;51.100;6.516;2023-04-25T13:58:48;2.70;;;1.80;;
29958;SDS011;16815;51.100;6.516;2023-04-25T14:01:14;5.20;;;2.13;;
29958;SDS011;16815;51.100;6.516;2023-04-25T14:03:40;4.97;;;1.93;;
29958;SDS011;16815;51.100;6.516;2023-04-25T14:06:07;3.07;;;1.47;;
29958;SDS011;16815;51.100;6.516;2023-04-25T14:08:33;3.60;;;1.80;;
29958;SDS011;16815;51.100;6.516;2023-04-25T14:10:59;1.73;;;1.40;;
29958;SDS011;16815;51.100;6.516;2023-04-25T14:13:26;3.47;;;1.73;;
29958;SDS011;16815;51.100;6.516;2023-04-25T14:15:52;4.27;;;1.60;;
29958;SDS011;16815;51.100;6.516;2023-04-25T14:18:18;5.83;;;1.50;;
29958;SDS011;16815;51.100;6.516;2023-04-25T14:20:44;3.67;;;1.47;;
29958;SDS011;16815;51.100;6.516;2023-04-25T14:23:10;2.00;;;1.50;;
29958;SDS011;16815;51.100;6.516;2023-04-25T14:25:36;3.50;;;1.60;;
29958;SDS011;16815;51.100;6.516;2023-04-25T14:28:03;2.87;;;1.20;;
29958;SDS011;16815;51.100;6.516;2023-04-25T14:30:29;2.93;;;1.30;;
29958;SDS011;16815;51.100;6.516;2023-04-25T14:32:55;4.17;;;1.67;;
29958;SDS011;16815;51.100;6.516;2023-04-25T14:35:21;3.03;;;1.50;;
29958;SDS011;16815;51.100;6.516;2023-04-25T14:37:47;3.43;;;1.60;;
29958;SDS011;16815;51.100;6.516;2023-04-25T14:40:13;3.53;;;1.70;;
29958;SDS011;16815;51.100;6.516;2023-04-25T14:42:40;5.97;;;2.00;;
29958;SDS011;16815;51.100;6.516;2023-04-25T14:45:06;4.30;;;1.70;;